Burksville, Illinois
Current Conditions -  °F | °C
As of 5:53 PM on Monday 24 Nov 2014 (Local Time) from KCPS Reporting Station
Overcast Overcast  
Wind Chill: 37°   Ceiling: 8000
Heat Index: 40°   Visibility: 10mi
Dew Point: 29°   Wind: 5mph
Humidity: 65%   Direction: 250°WSW
Pressure: 29.89"   Gusts: NA
Location:  38.3034°N, 90.1358°W
Report Text: KCPS 242353Z 25004KT 10SM OVC080 04/M02 A2989 RMK AO2 SLP124 T00441017 10061 20044 53030
Loading
Personal Weather Stations






























Interactive Weather Map New forecast layout! Learn more

10-Day Weather Forecast

Advertisements
Track Severe Weather on mobile